sensor_id;sensor_type;location;lat;lon;timestamp;P1;durP1;ratioP1;P2;durP2;ratioP2
4895;SDS011;2463;49.948;8.472;2023-05-01T00:01:59;90.25;;;5.05;;
4895;SDS011;2463;49.948;8.472;2023-05-01T00:04:27;90.38;;;5.00;;
4895;SDS011;2463;49.948;8.472;2023-05-01T00:06:54;89.78;;;6.00;;
4895;SDS011;2463;49.948;8.472;2023-05-01T00:09:20;89.20;;;5.03;;
4895;SDS011;2463;49.948;8.472;2023-05-01T00:11:47;90.72;;;5.20;;
4895;SDS011;2463;49.948;8.472;2023-05-01T00:14:14;90.40;;;5.30;;
4895;SDS011;2463;49.948;8.472;2023-05-01T00:16:41;88.82;;;5.00;;
4895;SDS011;2463;49.948;8.472;2023-05-01T00:19:07;91.13;;;5.30;;
4895;SDS011;2463;49.948;8.472;2023-05-01T00:21:34;91.28;;;5.20;;
4895;SDS011;2463;49.948;8.472;2023-05-01T00:24:01;91.22;;;5.10;;
4895;SDS011;2463;49.948;8.472;2023-05-01T00:26:28;89.53;;;4.88;;
4895;SDS011;2463;49.948;8.472;2023-05-01T00:28:56;90.85;;;5.18;;
4895;SDS011;2463;49.948;8.472;2023-05-01T00:31:23;88.70;;;4.93;;
4895;SDS011;2463;49.948;8.472;2023-05-01T00:33:51;88.80;;;4.82;;
4895;SDS011;2463;49.948;8.472;2023-05-01T00:36:18;89.13;;;5.30;;
4895;SDS011;2463;49.948;8.472;2023-05-01T00:38:45;92.38;;;6.03;;
4895;SDS011;2463;49.948;8.472;2023-05-01T00:41:12;93.90;;;5.53;;
4895;SDS011;2463;49.948;8.472;2023-05-01T00:43:38;93.35;;;6.10;;
4895;SDS011;2463;49.948;8.472;2023-05-01T00:46:05;89.22;;;5.30;;
4895;SDS011;2463;49.948;8.472;2023-05-01T00:48:33;92.80;;;5.47;;
4895;SDS011;2463;49.948;8.472;2023-05-01T00:51:00;89.10;;;4.80;;
4895;SDS011;2463;49.948;8.472;2023-05-01T00:53:29;90.22;;;5.30;;
4895;SDS011;2463;49.948;8.472;2023-05-01T00:55:58;89.53;;;5.05;;
4895;SDS011;2463;49.948;8.472;2023-05-01T00:58:25;91.13;;;6.00;;
4895;SDS011;2463;49.948;8.472;2023-05-01T01:00:53;90.30;;;5.40;;
4895;SDS011;2463;49.948;8.472;2023-05-01T01:03:20;89.95;;;5.25;;
4895;SDS011;2463;49.948;8.472;2023-05-01T01:05:50;89.80;;;5.75;;
4895;SDS011;2463;49.948;8.472;2023-05-01T01:08:29;90.65;;;5.50;;
4895;SDS011;2463;49.948;8.472;2023-05-01T01:11:17;90.63;;;5.57;;
4895;SDS011;2463;49.948;8.472;2023-05-01T01:13:57;91.63;;;6.05;;
4895;SDS011;2463;49.948;8.472;2023-05-01T01:19:20;91.60;;;5.63;;
4895;SDS011;2463;49.948;8.472;2023-05-01T01:22:11;91.43;;;5.90;;
4895;SDS011;2463;49.948;8.472;2023-05-01T01:30:10;90.72;;;5.70;;
4895;SDS011;2463;49.948;8.472;2023-05-01T01:35:30;94.30;;;5.57;;
4895;SDS011;2463;49.948;8.472;2023-05-01T01:38:03;95.80;;;6.00;;
4895;SDS011;2463;49.948;8.472;2023-05-01T01:40:38;90.32;;;5.55;;
4895;SDS011;2463;49.948;8.472;2023-05-01T01:43:27;90.82;;;6.18;;
4895;SDS011;2463;49.948;8.472;2023-05-01T01:46:02;92.57;;;6.07;;
4895;SDS011;2463;49.948;8.472;2023-05-01T01:48:33;93.28;;;6.22;;
4895;SDS011;2463;49.948;8.472;2023-05-01T01:51:07;91.40;;;5.70;;
4895;SDS011;2463;49.948;8.472;2023-05-01T01:53:38;96.05;;;5.72;;
4895;SDS011;2463;49.948;8.472;2023-05-01T01:56:06;92.15;;;6.22;;
4895;SDS011;2463;49.948;8.472;2023-05-01T01:58:35;91.68;;;5.65;;
4895;SDS011;2463;49.948;8.472;2023-05-01T02:01:04;93.65;;;6.00;;
4895;SDS011;2463;49.948;8.472;2023-05-01T02:03:31;92.03;;;6.50;;
4895;SDS011;2463;49.948;8.472;2023-05-01T02:05:59;91.18;;;5.90;;
4895;SDS011;2463;49.948;8.472;2023-05-01T02:08:28;92.13;;;5.93;;
4895;SDS011;2463;49.948;8.472;2023-05-01T02:10:56;94.20;;;5.60;;
4895;SDS011;2463;49.948;8.472;2023-05-01T02:13:27;90.35;;;5.53;;
4895;SDS011;2463;49.948;8.472;2023-05-01T02:15:55;94.50;;;6.13;;
4895;SDS011;2463;49.948;8.472;2023-05-01T02:18:25;93.35;;;6.07;;
4895;SDS011;2463;49.948;8.472;2023-05-01T02:20:54;91.68;;;5.72;;
4895;SDS011;2463;49.948;8.472;2023-05-01T02:23:23;95.78;;;6.10;;
4895;SDS011;2463;49.948;8.472;2023-05-01T02:25:52;90.57;;;5.90;;
4895;SDS011;2463;49.948;8.472;2023-05-01T02:28:23;91.13;;;5.80;;
4895;SDS011;2463;49.948;8.472;2023-05-01T02:30:52;93.40;;;6.15;;
4895;SDS011;2463;49.948;8.472;2023-05-01T02:33:19;90.85;;;5.93;;
4895;SDS011;2463;49.948;8.472;2023-05-01T02:35:45;90.97;;;6.03;;
4895;SDS011;2463;49.948;8.472;2023-05-01T02:38:13;91.80;;;6.25;;
4895;SDS011;2463;49.948;8.472;2023-05-01T02:40:43;91.85;;;5.55;;
4895;SDS011;2463;49.948;8.472;2023-05-01T02:43:12;91.70;;;5.70;;
4895;SDS011;2463;49.948;8.472;2023-05-01T02:45:41;91.45;;;5.90;;
4895;SDS011;2463;49.948;8.472;2023-05-01T02:48:10;92.78;;;5.95;;
4895;SDS011;2463;49.948;8.472;2023-05-01T02:50:40;90.75;;;5.55;;
4895;SDS011;2463;49.948;8.472;2023-05-01T02:53:09;90.93;;;5.50;;
4895;SDS011;2463;49.948;8.472;2023-05-01T02:55:38;92.05;;;5.88;;
4895;SDS011;2463;49.948;8.472;2023-05-01T02:58:05;93.28;;;5.97;;
4895;SDS011;2463;49.948;8.472;2023-05-01T03:00:32;93.53;;;5.80;;
4895;SDS011;2463;49.948;8.472;2023-05-01T03:02:59;90.25;;;5.40;;
4895;SDS011;2463;49.948;8.472;2023-05-01T03:05:26;89.97;;;5.82;;
4895;SDS011;2463;49.948;8.472;2023-05-01T03:07:53;90.53;;;5.68;;
4895;SDS011;2463;49.948;8.472;2023-05-01T03:10:19;93.68;;;6.05;;
4895;SDS011;2463;49.948;8.472;2023-05-01T03:12:46;91.68;;;6.15;;
4895;SDS011;2463;49.948;8.472;2023-05-01T03:15:13;92.03;;;6.00;;
4895;SDS011;2463;49.948;8.472;2023-05-01T03:17:40;91.70;;;5.88;;
4895;SDS011;2463;49.948;8.472;2023-05-01T03:20:07;92.90;;;5.97;;
4895;SDS011;2463;49.948;8.472;2023-05-01T03:22:35;94.07;;;7.20;;
4895;SDS011;2463;49.948;8.472;2023-05-01T03:25:02;92.40;;;6.20;;
4895;SDS011;2463;49.948;8.472;2023-05-01T03:27:29;91.38;;;6.13;;
4895;SDS011;2463;49.948;8.472;2023-05-01T03:29:56;91.93;;;6.28;;
4895;SDS011;2463;49.948;8.472;2023-05-01T03:32:23;90.32;;;5.93;;
4895;SDS011;2463;49.948;8.472;2023-05-01T03:34:50;92.68;;;6.38;;
4895;SDS011;2463;49.948;8.472;2023-05-01T03:37:17;92.03;;;6.50;;
4895;SDS011;2463;49.948;8.472;2023-05-01T03:39:43;91.63;;;6.00;;
4895;SDS011;2463;49.948;8.472;2023-05-01T03:42:10;92.85;;;6.53;;
4895;SDS011;2463;49.948;8.472;2023-05-01T03:44:36;92.03;;;6.47;;
4895;SDS011;2463;49.948;8.472;2023-05-01T03:47:03;94.70;;;6.40;;
4895;SDS011;2463;49.948;8.472;2023-05-01T03:49:30;91.32;;;5.90;;
4895;SDS011;2463;49.948;8.472;2023-05-01T03:51:56;92.70;;;6.40;;
4895;SDS011;2463;49.948;8.472;2023-05-01T03:54:23;92.53;;;6.35;;
4895;SDS011;2463;49.948;8.472;2023-05-01T03:56:50;93.10;;;6.55;;
4895;SDS011;2463;49.948;8.472;2023-05-01T03:59:17;94.13;;;6.00;;
4895;SDS011;2463;49.948;8.472;2023-05-01T04:01:44;94.95;;;6.30;;
4895;SDS011;2463;49.948;8.472;2023-05-01T04:04:10;93.20;;;6.70;;
4895;SDS011;2463;49.948;8.472;2023-05-01T04:06:37;94.20;;;7.00;;
4895;SDS011;2463;49.948;8.472;2023-05-01T04:09:05;91.70;;;6.03;;
4895;SDS011;2463;49.948;8.472;2023-05-01T04:11:32;92.38;;;6.30;;
4895;SDS011;2463;49.948;8.472;2023-05-01T04:13:58;91.47;;;6.10;;
4895;SDS011;2463;49.948;8.472;2023-05-01T04:16:25;92.45;;;6.28;;
4895;SDS011;2463;49.948;8.472;2023-05-01T04:18:52;92.10;;;6.63;;
4895;SDS011;2463;49.948;8.472;2023-05-01T04:21:18;93.20;;;6.43;;
4895;SDS011;2463;49.948;8.472;2023-05-01T04:23:45;92.95;;;6.38;;
4895;SDS011;2463;49.948;8.472;2023-05-01T04:26:12;92.25;;;6.55;;
4895;SDS011;2463;49.948;8.472;2023-05-01T04:28:38;92.07;;;6.65;;
4895;SDS011;2463;49.948;8.472;2023-05-01T04:31:05;97.03;;;6.50;;
4895;SDS011;2463;49.948;8.472;2023-05-01T04:33:32;92.82;;;6.03;;
4895;SDS011;2463;49.948;8.472;2023-05-01T04:35:58;91.93;;;6.40;;
4895;SDS011;2463;49.948;8.472;2023-05-01T04:38:26;93.72;;;6.45;;
4895;SDS011;2463;49.948;8.472;2023-05-01T04:40:53;95.82;;;6.32;;
4895;SDS011;2463;49.948;8.472;2023-05-01T04:43:21;94.75;;;6.50;;
4895;SDS011;2463;49.948;8.472;2023-05-01T04:45:47;92.93;;;6.60;;
4895;SDS011;2463;49.948;8.472;2023-05-01T04:48:14;92.18;;;6.45;;
4895;SDS011;2463;49.948;8.472;2023-05-01T04:50:41;92.57;;;6.60;;
4895;SDS011;2463;49.948;8.472;2023-05-01T04:53:08;95.00;;;7.20;;
4895;SDS011;2463;49.948;8.472;2023-05-01T04:55:35;92.70;;;6.75;;
4895;SDS011;2463;49.948;8.472;2023-05-01T04:58:01;94.63;;;6.35;;
4895;SDS011;2463;49.948;8.472;2023-05-01T05:00:29;96.15;;;6.90;;
4895;SDS011;2463;49.948;8.472;2023-05-01T05:02:56;95.72;;;6.95;;
4895;SDS011;2463;49.948;8.472;2023-05-01T05:05:23;92.47;;;6.43;;
4895;SDS011;2463;49.948;8.472;2023-05-01T05:07:50;91.88;;;6.28;;
4895;SDS011;2463;49.948;8.472;2023-05-01T05:10:16;93.97;;;6.80;;
4895;SDS011;2463;49.948;8.472;2023-05-01T05:12:43;91.72;;;6.32;;
4895;SDS011;2463;49.948;8.472;2023-05-01T05:15:10;93.32;;;6.70;;
4895;SDS011;2463;49.948;8.472;2023-05-01T05:17:37;94.78;;;9.13;;
4895;SDS011;2463;49.948;8.472;2023-05-01T05:20:04;92.28;;;6.60;;
4895;SDS011;2463;49.948;8.472;2023-05-01T05:22:34;93.13;;;6.80;;
4895;SDS011;2463;49.948;8.472;2023-05-01T05:25:01;93.60;;;7.35;;
4895;SDS011;2463;49.948;8.472;2023-05-01T05:27:31;90.68;;;6.20;;
4895;SDS011;2463;49.948;8.472;2023-05-01T05:30:03;94.00;;;6.85;;
4895;SDS011;2463;49.948;8.472;2023-05-01T05:32:31;93.68;;;6.57;;
4895;SDS011;2463;49.948;8.472;2023-05-01T05:34:58;96.03;;;6.45;;
4895;SDS011;2463;49.948;8.472;2023-05-01T05:37:25;93.25;;;6.82;;
4895;SDS011;2463;49.948;8.472;2023-05-01T05:39:52;94.30;;;6.40;;
4895;SDS011;2463;49.948;8.472;2023-05-01T05:42:19;91.68;;;6.47;;
4895;SDS011;2463;49.948;8.472;2023-05-01T05:44:45;92.95;;;6.28;;
4895;SDS011;2463;49.948;8.472;2023-05-01T05:47:12;93.85;;;6.35;;
4895;SDS011;2463;49.948;8.472;2023-05-01T05:49:39;92.85;;;6.47;;
4895;SDS011;2463;49.948;8.472;2023-05-01T05:52:05;91.95;;;6.45;;
4895;SDS011;2463;49.948;8.472;2023-05-01T05:54:32;93.40;;;6.47;;
4895;SDS011;2463;49.948;8.472;2023-05-01T05:56:59;94.57;;;6.32;;
4895;SDS011;2463;49.948;8.472;2023-05-01T05:59:26;91.88;;;6.43;;
4895;SDS011;2463;49.948;8.472;2023-05-01T06:01:53;91.93;;;6.18;;
4895;SDS011;2463;49.948;8.472;2023-05-01T06:04:19;91.28;;;6.40;;
4895;SDS011;2463;49.948;8.472;2023-05-01T06:06:46;92.85;;;6.20;;
4895;SDS011;2463;49.948;8.472;2023-05-01T06:09:13;93.70;;;6.82;;
4895;SDS011;2463;49.948;8.472;2023-05-01T06:11:42;91.18;;;6.50;;
4895;SDS011;2463;49.948;8.472;2023-05-01T06:14:08;90.97;;;6.00;;
4895;SDS011;2463;49.948;8.472;2023-05-01T06:16:36;93.47;;;6.45;;
4895;SDS011;2463;49.948;8.472;2023-05-01T06:19:03;93.15;;;6.90;;
4895;SDS011;2463;49.948;8.472;2023-05-01T06:21:30;90.30;;;6.28;;
4895;SDS011;2463;49.948;8.472;2023-05-01T06:23:57;91.60;;;6.63;;
4895;SDS011;2463;49.948;8.472;2023-05-01T06:26:24;91.85;;;6.35;;
4895;SDS011;2463;49.948;8.472;2023-05-01T06:28:51;93.07;;;6.60;;
4895;SDS011;2463;49.948;8.472;2023-05-01T06:31:18;90.45;;;6.50;;
4895;SDS011;2463;49.948;8.472;2023-05-01T06:33:44;93.00;;;6.97;;
4895;SDS011;2463;49.948;8.472;2023-05-01T06:36:11;94.55;;;6.30;;
4895;SDS011;2463;49.948;8.472;2023-05-01T06:38:38;95.10;;;6.97;;
4895;SDS011;2463;49.948;8.472;2023-05-01T06:41:05;94.03;;;6.97;;
4895;SDS011;2463;49.948;8.472;2023-05-01T06:43:32;95.78;;;6.80;;
4895;SDS011;2463;49.948;8.472;2023-05-01T06:45:59;91.47;;;6.53;;
4895;SDS011;2463;49.948;8.472;2023-05-01T06:48:25;91.70;;;6.53;;
4895;SDS011;2463;49.948;8.472;2023-05-01T06:50:52;89.72;;;6.20;;
4895;SDS011;2463;49.948;8.472;2023-05-01T06:53:18;93.75;;;6.40;;
4895;SDS011;2463;49.948;8.472;2023-05-01T06:55:45;96.85;;;6.82;;
4895;SDS011;2463;49.948;8.472;2023-05-01T06:58:12;93.93;;;6.20;;
4895;SDS011;2463;49.948;8.472;2023-05-01T07:00:48;91.20;;;6.00;;
4895;SDS011;2463;49.948;8.472;2023-05-01T07:03:15;91.72;;;6.40;;
4895;SDS011;2463;49.948;8.472;2023-05-01T07:05:42;93.20;;;6.40;;
4895;SDS011;2463;49.948;8.472;2023-05-01T07:08:09;92.93;;;6.47;;
4895;SDS011;2463;49.948;8.472;2023-05-01T07:10:36;90.32;;;5.97;;
4895;SDS011;2463;49.948;8.472;2023-05-01T07:13:06;89.57;;;6.20;;
4895;SDS011;2463;49.948;8.472;2023-05-01T07:15:33;89.57;;;5.75;;
4895;SDS011;2463;49.948;8.472;2023-05-01T07:18:00;92.22;;;5.53;;
4895;SDS011;2463;49.948;8.472;2023-05-01T07:20:28;91.03;;;6.40;;
4895;SDS011;2463;49.948;8.472;2023-05-01T07:22:55;89.97;;;6.93;;
4895;SDS011;2463;49.948;8.472;2023-05-01T07:25:21;92.25;;;6.43;;
4895;SDS011;2463;49.948;8.472;2023-05-01T07:27:48;89.18;;;6.05;;
4895;SDS011;2463;49.948;8.472;2023-05-01T07:30:15;92.70;;;6.80;;
4895;SDS011;2463;49.948;8.472;2023-05-01T07:32:41;89.38;;;5.75;;
4895;SDS011;2463;49.948;8.472;2023-05-01T07:35:08;92.80;;;6.60;;
4895;SDS011;2463;49.948;8.472;2023-05-01T07:37:35;89.80;;;5.88;;
4895;SDS011;2463;49.948;8.472;2023-05-01T07:40:02;91.63;;;5.70;;
4895;SDS011;2463;49.948;8.472;2023-05-01T07:42:29;89.95;;;6.00;;
4895;SDS011;2463;49.948;8.472;2023-05-01T07:44:55;91.75;;;6.25;;
4895;SDS011;2463;49.948;8.472;2023-05-01T07:47:22;89.72;;;6.20;;
4895;SDS011;2463;49.948;8.472;2023-05-01T07:49:49;92.55;;;6.35;;
4895;SDS011;2463;49.948;8.472;2023-05-01T07:52:16;88.70;;;5.82;;
4895;SDS011;2463;49.948;8.472;2023-05-01T07:54:42;89.88;;;5.82;;
4895;SDS011;2463;49.948;8.472;2023-05-01T07:57:13;90.82;;;5.53;;
4895;SDS011;2463;49.948;8.472;2023-05-01T07:59:40;90.15;;;6.40;;
4895;SDS011;2463;49.948;8.472;2023-05-01T08:02:07;92.28;;;5.70;;
4895;SDS011;2463;49.948;8.472;2023-05-01T08:04:33;90.30;;;5.78;;
4895;SDS011;2463;49.948;8.472;2023-05-01T08:07:00;90.63;;;5.75;;
4895;SDS011;2463;49.948;8.472;2023-05-01T08:09:27;93.68;;;6.32;;
4895;SDS011;2463;49.948;8.472;2023-05-01T08:11:54;88.18;;;5.78;;
4895;SDS011;2463;49.948;8.472;2023-05-01T08:14:20;91.68;;;6.35;;
4895;SDS011;2463;49.948;8.472;2023-05-01T08:16:47;89.55;;;5.82;;
4895;SDS011;2463;49.948;8.472;2023-05-01T08:19:19;90.75;;;6.10;;
4895;SDS011;2463;49.948;8.472;2023-05-01T08:21:46;89.15;;;5.50;;
4895;SDS011;2463;49.948;8.472;2023-05-01T08:24:13;89.93;;;5.72;;
4895;SDS011;2463;49.948;8.472;2023-05-01T08:26:40;92.15;;;5.57;;
4895;SDS011;2463;49.948;8.472;2023-05-01T08:29:06;91.18;;;6.00;;
4895;SDS011;2463;49.948;8.472;2023-05-01T08:31:33;89.35;;;5.45;;
4895;SDS011;2463;49.948;8.472;2023-05-01T08:34:03;88.72;;;5.47;;
4895;SDS011;2463;49.948;8.472;2023-05-01T08:36:30;89.60;;;5.65;;
4895;SDS011;2463;49.948;8.472;2023-05-01T08:38:57;92.90;;;6.30;;
4895;SDS011;2463;49.948;8.472;2023-05-01T08:41:24;88.05;;;5.47;;
4895;SDS011;2463;49.948;8.472;2023-05-01T08:43:53;91.72;;;5.90;;
4895;SDS011;2463;49.948;8.472;2023-05-01T08:46:28;93.60;;;5.90;;
4895;SDS011;2463;49.948;8.472;2023-05-01T08:49:06;89.88;;;6.03;;
4895;SDS011;2463;49.948;8.472;2023-05-01T08:51:36;88.38;;;5.47;;
4895;SDS011;2463;49.948;8.472;2023-05-01T08:54:03;86.82;;;5.20;;
4895;SDS011;2463;49.948;8.472;2023-05-01T08:56:34;88.18;;;5.30;;
4895;SDS011;2463;49.948;8.472;2023-05-01T08:59:03;91.10;;;5.72;;
4895;SDS011;2463;49.948;8.472;2023-05-01T09:01:32;87.75;;;5.25;;
4895;SDS011;2463;49.948;8.472;2023-05-01T09:04:00;86.93;;;6.20;;
4895;SDS011;2463;49.948;8.472;2023-05-01T09:06:28;89.28;;;5.60;;
4895;SDS011;2463;49.948;8.472;2023-05-01T09:08:57;87.00;;;5.00;;
4895;SDS011;2463;49.948;8.472;2023-05-01T09:11:24;85.30;;;4.90;;
4895;SDS011;2463;49.948;8.472;2023-05-01T09:13:52;85.43;;;5.20;;
4895;SDS011;2463;49.948;8.472;2023-05-01T09:16:19;86.20;;;5.30;;
4895;SDS011;2463;49.948;8.472;2023-05-01T09:18:46;85.47;;;5.00;;
4895;SDS011;2463;49.948;8.472;2023-05-01T09:21:13;87.70;;;5.00;;
4895;SDS011;2463;49.948;8.472;2023-05-01T09:23:40;86.30;;;4.90;;
4895;SDS011;2463;49.948;8.472;2023-05-01T09:26:07;87.47;;;5.70;;
4895;SDS011;2463;49.948;8.472;2023-05-01T09:28:46;91.80;;;5.27;;
4895;SDS011;2463;49.948;8.472;2023-05-01T09:31:24;89.40;;;5.70;;
4895;SDS011;2463;49.948;8.472;2023-05-01T09:33:56;85.07;;;5.00;;
4895;SDS011;2463;49.948;8.472;2023-05-01T09:36:25;85.07;;;4.70;;
4895;SDS011;2463;49.948;8.472;2023-05-01T09:38:53;85.97;;;5.17;;
4895;SDS011;2463;49.948;8.472;2023-05-01T09:41:20;84.77;;;5.13;;
4895;SDS011;2463;49.948;8.472;2023-05-01T09:43:57;85.13;;;5.60;;
4895;SDS011;2463;49.948;8.472;2023-05-01T09:46:24;84.73;;;4.97;;
4895;SDS011;2463;49.948;8.472;2023-05-01T09:48:56;83.80;;;5.10;;
4895;SDS011;2463;49.948;8.472;2023-05-01T09:51:28;85.77;;;5.20;;
4895;SDS011;2463;49.948;8.472;2023-05-01T09:53:57;86.97;;;5.73;;
4895;SDS011;2463;49.948;8.472;2023-05-01T09:56:25;87.13;;;5.27;;
4895;SDS011;2463;49.948;8.472;2023-05-01T09:58:53;83.77;;;5.20;;
4895;SDS011;2463;49.948;8.472;2023-05-01T10:01:37;82.97;;;4.50;;
4895;SDS011;2463;49.948;8.472;2023-05-01T10:04:08;82.47;;;4.77;;
4895;SDS011;2463;49.948;8.472;2023-05-01T10:06:35;88.30;;;5.20;;
4895;SDS011;2463;49.948;8.472;2023-05-01T10:09:03;83.17;;;4.90;;
4895;SDS011;2463;49.948;8.472;2023-05-01T10:11:48;85.80;;;4.87;;
4895;SDS011;2463;49.948;8.472;2023-05-01T10:14:17;84.07;;;4.87;;
4895;SDS011;2463;49.948;8.472;2023-05-01T10:16:45;82.70;;;4.43;;
4895;SDS011;2463;49.948;8.472;2023-05-01T10:19:12;83.00;;;4.93;;
4895;SDS011;2463;49.948;8.472;2023-05-01T10:21:40;82.40;;;4.77;;
4895;SDS011;2463;49.948;8.472;2023-05-01T10:24:07;83.20;;;5.10;;
4895;SDS011;2463;49.948;8.472;2023-05-01T10:26:35;84.50;;;4.97;;
4895;SDS011;2463;49.948;8.472;2023-05-01T10:29:03;83.53;;;4.93;;
4895;SDS011;2463;49.948;8.472;2023-05-01T10:31:29;83.10;;;5.07;;
4895;SDS011;2463;49.948;8.472;2023-05-01T10:33:58;82.07;;;4.80;;
4895;SDS011;2463;49.948;8.472;2023-05-01T10:36:33;83.50;;;4.60;;
4895;SDS011;2463;49.948;8.472;2023-05-01T10:39:05;82.17;;;4.37;;
4895;SDS011;2463;49.948;8.472;2023-05-01T10:44:24;83.87;;;4.50;;
4895;SDS011;2463;49.948;8.472;2023-05-01T10:46:52;84.93;;;4.47;;
4895;SDS011;2463;49.948;8.472;2023-05-01T10:49:19;82.60;;;4.77;;
4895;SDS011;2463;49.948;8.472;2023-05-01T10:54:24;84.70;;;4.60;;
4895;SDS011;2463;49.948;8.472;2023-05-01T10:56:56;82.17;;;4.43;;
4895;SDS011;2463;49.948;8.472;2023-05-01T10:59:24;81.67;;;4.30;;
4895;SDS011;2463;49.948;8.472;2023-05-01T11:01:52;82.37;;;4.40;;
4895;SDS011;2463;49.948;8.472;2023-05-01T11:09:52;83.60;;;4.83;;
4895;SDS011;2463;49.948;8.472;2023-05-01T11:13:03;82.27;;;5.20;;
4895;SDS011;2463;49.948;8.472;2023-05-01T11:15:11;80.90;;;4.23;;
4895;SDS011;2463;49.948;8.472;2023-05-01T11:20:12;82.33;;;4.43;;
4895;SDS011;2463;49.948;8.472;2023-05-01T11:23:01;82.27;;;4.50;;
4895;SDS011;2463;49.948;8.472;2023-05-01T11:25:28;83.77;;;5.00;;
4895;SDS011;2463;49.948;8.472;2023-05-01T11:27:57;82.80;;;5.43;;
4895;SDS011;2463;49.948;8.472;2023-05-01T11:30:35;84.30;;;4.73;;
4895;SDS011;2463;49.948;8.472;2023-05-01T11:33:05;86.70;;;5.30;;
4895;SDS011;2463;49.948;8.472;2023-05-01T11:35:36;84.57;;;5.20;;
4895;SDS011;2463;49.948;8.472;2023-05-01T11:38:03;84.07;;;4.93;;
4895;SDS011;2463;49.948;8.472;2023-05-01T11:40:31;83.23;;;4.90;;
4895;SDS011;2463;49.948;8.472;2023-05-01T11:43:06;83.60;;;5.40;;
4895;SDS011;2463;49.948;8.472;2023-05-01T11:45:34;82.40;;;4.70;;
4895;SDS011;2463;49.948;8.472;2023-05-01T11:48:02;82.87;;;5.00;;
4895;SDS011;2463;49.948;8.472;2023-05-01T11:50:34;82.50;;;5.00;;
4895;SDS011;2463;49.948;8.472;2023-05-01T11:53:11;82.37;;;4.63;;
4895;SDS011;2463;49.948;8.472;2023-05-01T11:55:41;80.87;;;4.70;;
4895;SDS011;2463;49.948;8.472;2023-05-01T11:58:07;82.90;;;4.57;;
4895;SDS011;2463;49.948;8.472;2023-05-01T12:00:35;82.03;;;5.03;;
4895;SDS011;2463;49.948;8.472;2023-05-01T12:03:07;85.60;;;4.90;;
4895;SDS011;2463;49.948;8.472;2023-05-01T12:05:39;85.17;;;5.07;;
4895;SDS011;2463;49.948;8.472;2023-05-01T12:08:08;83.40;;;5.27;;
4895;SDS011;2463;49.948;8.472;2023-05-01T12:10:36;86.87;;;5.47;;
4895;SDS011;2463;49.948;8.472;2023-05-01T12:13:05;84.17;;;4.97;;
4895;SDS011;2463;49.948;8.472;2023-05-01T12:15:34;86.80;;;5.60;;
4895;SDS011;2463;49.948;8.472;2023-05-01T12:18:03;85.00;;;5.03;;
4895;SDS011;2463;49.948;8.472;2023-05-01T12:20:34;84.40;;;4.90;;
4895;SDS011;2463;49.948;8.472;2023-05-01T12:23:03;87.33;;;5.03;;
4895;SDS011;2463;49.948;8.472;2023-05-01T12:25:31;84.10;;;5.20;;
4895;SDS011;2463;49.948;8.472;2023-05-01T12:28:02;85.57;;;5.50;;
4895;SDS011;2463;49.948;8.472;2023-05-01T12:30:35;84.83;;;6.30;;
4895;SDS011;2463;49.948;8.472;2023-05-01T12:35:44;84.63;;;5.20;;
4895;SDS011;2463;49.948;8.472;2023-05-01T12:40:52;86.50;;;5.27;;
4895;SDS011;2463;49.948;8.472;2023-05-01T12:43:28;85.00;;;5.57;;
4895;SDS011;2463;49.948;8.472;2023-05-01T12:45:55;83.67;;;4.77;;
4895;SDS011;2463;49.948;8.472;2023-05-01T12:48:22;83.30;;;4.80;;
4895;SDS011;2463;49.948;8.472;2023-05-01T12:50:49;86.33;;;5.80;;
4895;SDS011;2463;49.948;8.472;2023-05-01T12:53:23;84.40;;;5.20;;
4895;SDS011;2463;49.948;8.472;2023-05-01T12:55:55;84.23;;;5.33;;
4895;SDS011;2463;49.948;8.472;2023-05-01T12:58:33;83.33;;;4.90;;
4895;SDS011;2463;49.948;8.472;2023-05-01T13:01:03;87.23;;;5.23;;
4895;SDS011;2463;49.948;8.472;2023-05-01T13:03:32;86.23;;;5.33;;
4895;SDS011;2463;49.948;8.472;2023-05-01T13:06:01;84.40;;;5.03;;
4895;SDS011;2463;49.948;8.472;2023-05-01T13:08:32;85.20;;;5.50;;
4895;SDS011;2463;49.948;8.472;2023-05-01T13:11:09;87.63;;;5.00;;
4895;SDS011;2463;49.948;8.472;2023-05-01T13:13:45;84.30;;;4.77;;
4895;SDS011;2463;49.948;8.472;2023-05-01T13:16:15;83.40;;;5.10;;
4895;SDS011;2463;49.948;8.472;2023-05-01T13:18:45;84.30;;;5.37;;
4895;SDS011;2463;49.948;8.472;2023-05-01T13:21:14;89.07;;;5.10;;
4895;SDS011;2463;49.948;8.472;2023-05-01T13:23:55;84.47;;;4.93;;
4895;SDS011;2463;49.948;8.472;2023-05-01T13:26:31;84.37;;;5.40;;
4895;SDS011;2463;49.948;8.472;2023-05-01T13:29:01;86.87;;;5.43;;
4895;SDS011;2463;49.948;8.472;2023-05-01T13:31:31;83.20;;;5.37;;
4895;SDS011;2463;49.948;8.472;2023-05-01T13:33:58;83.70;;;5.00;;
4895;SDS011;2463;49.948;8.472;2023-05-01T13:36:27;84.80;;;4.93;;
4895;SDS011;2463;49.948;8.472;2023-05-01T13:38:58;85.90;;;5.00;;
4895;SDS011;2463;49.948;8.472;2023-05-01T13:41:25;83.17;;;4.50;;
4895;SDS011;2463;49.948;8.472;2023-05-01T13:43:53;88.33;;;4.83;;
4895;SDS011;2463;49.948;8.472;2023-05-01T13:46:22;84.10;;;4.50;;
4895;SDS011;2463;49.948;8.472;2023-05-01T13:48:49;83.37;;;5.10;;
4895;SDS011;2463;49.948;8.472;2023-05-01T13:51:20;82.90;;;4.50;;
4895;SDS011;2463;49.948;8.472;2023-05-01T13:53:49;82.80;;;4.77;;
4895;SDS011;2463;49.948;8.472;2023-05-01T13:56:18;83.87;;;5.20;;
4895;SDS011;2463;49.948;8.472;2023-05-01T13:58:45;88.80;;;5.30;;
4895;SDS011;2463;49.948;8.472;2023-05-01T14:01:15;84.10;;;4.77;;
4895;SDS011;2463;49.948;8.472;2023-05-01T14:03:48;82.97;;;4.73;;
4895;SDS011;2463;49.948;8.472;2023-05-01T14:06:16;86.10;;;4.77;;
4895;SDS011;2463;49.948;8.472;2023-05-01T14:08:44;83.27;;;4.30;;
4895;SDS011;2463;49.948;8.472;2023-05-01T14:11:13;83.67;;;5.07;;
4895;SDS011;2463;49.948;8.472;2023-05-01T14:13:40;81.93;;;4.30;;
4895;SDS011;2463;49.948;8.472;2023-05-01T14:16:09;85.27;;;4.33;;
4895;SDS011;2463;49.948;8.472;2023-05-01T14:18:42;83.60;;;4.70;;
4895;SDS011;2463;49.948;8.472;2023-05-01T14:21:13;85.63;;;4.70;;
4895;SDS011;2463;49.948;8.472;2023-05-01T14:23:41;82.50;;;4.73;;
4895;SDS011;2463;49.948;8.472;2023-05-01T14:26:08;83.93;;;5.13;;
4895;SDS011;2463;49.948;8.472;2023-05-01T14:28:38;87.07;;;4.70;;
4895;SDS011;2463;49.948;8.472;2023-05-01T14:31:08;81.30;;;4.43;;
4895;SDS011;2463;49.948;8.472;2023-05-01T14:33:42;84.87;;;5.27;;
4895;SDS011;2463;49.948;8.472;2023-05-01T14:36:09;83.50;;;5.27;;
4895;SDS011;2463;49.948;8.472;2023-05-01T14:38:37;82.07;;;4.83;;
4895;SDS011;2463;49.948;8.472;2023-05-01T14:41:05;86.43;;;4.60;;
4895;SDS011;2463;49.948;8.472;2023-05-01T14:43:35;85.67;;;4.97;;
4895;SDS011;2463;49.948;8.472;2023-05-01T14:46:07;84.17;;;4.63;;
4895;SDS011;2463;49.948;8.472;2023-05-01T14:48:36;85.63;;;4.57;;
4895;SDS011;2463;49.948;8.472;2023-05-01T14:51:14;88.63;;;5.10;;
4895;SDS011;2463;49.948;8.472;2023-05-01T14:53:44;82.97;;;4.50;;
4895;SDS011;2463;49.948;8.472;2023-05-01T14:56:11;84.17;;;4.70;;
4895;SDS011;2463;49.948;8.472;2023-05-01T14:58:38;84.47;;;4.70;;
4895;SDS011;2463;49.948;8.472;2023-05-01T15:01:05;86.70;;;5.60;;
4895;SDS011;2463;49.948;8.472;2023-05-01T15:03:32;85.80;;;5.50;;
4895;SDS011;2463;49.948;8.472;2023-05-01T15:06:06;84.47;;;4.80;;
4895;SDS011;2463;49.948;8.472;2023-05-01T15:08:34;85.30;;;5.10;;
4895;SDS011;2463;49.948;8.472;2023-05-01T15:11:01;84.70;;;5.30;;
4895;SDS011;2463;49.948;8.472;2023-05-01T15:13:28;85.40;;;5.00;;
4895;SDS011;2463;49.948;8.472;2023-05-01T15:15:56;86.33;;;5.67;;
4895;SDS011;2463;49.948;8.472;2023-05-01T15:18:24;85.57;;;6.00;;
4895;SDS011;2463;49.948;8.472;2023-05-01T15:20:51;96.80;;;5.80;;
4895;SDS011;2463;49.948;8.472;2023-05-01T15:23:18;86.37;;;5.37;;
4895;SDS011;2463;49.948;8.472;2023-05-01T15:25:44;85.73;;;5.10;;
4895;SDS011;2463;49.948;8.472;2023-05-01T15:28:12;86.43;;;5.40;;
4895;SDS011;2463;49.948;8.472;2023-05-01T15:30:42;85.20;;;4.97;;
4895;SDS011;2463;49.948;8.472;2023-05-01T15:33:11;86.43;;;5.40;;
4895;SDS011;2463;49.948;8.472;2023-05-01T15:35:43;86.53;;;4.80;;
4895;SDS011;2463;49.948;8.472;2023-05-01T15:38:10;86.37;;;5.17;;
4895;SDS011;2463;49.948;8.472;2023-05-01T15:40:37;89.20;;;6.67;;